Terminal Aerodrome Forecast
Issued by NWS

Home | Current Version | Previous Version | Text Only | Print | Product List | Glossary On
Versions: 1 2 3 4 5 6 7 8 9 10 11 12 13 14 15 16 17 18 19 20 21
000
FTUS41 KCAR 241100 AAA
TAFHUL
TAF AMD
KHUL 241154Z 2412/2512 34014G22KT 3/4SM -SN BR BKN007 OVC015
     FM241400 35015G25KT 3SM -RASN BR SCT007 OVC015
     FM241500 36015G25KT 5SM -RA BR OVC015
     FM241800 36014G22KT 6SM -SHRA OVC020=

USA.gov is the U.S. government's official web portal to all federal, state and local government web resources and services.